Timeline UpdatesTrip UpdatesNews PostsPvt PostsTravel TipsAdmin PostsConv PostsFollowed PostsChat RequestsBlog PostsPNR Posts

Disclaimer
Search
 
 
Fri Apr 18, 2014 23:44:05 ISTHomeTrainsΣChainsAtlasPNRForumGalleryNewsFAQTripsMembersLoginFeedback
No Recent News for this Train
Other Trains in the News **new
Latest...
.
Tue Feb 25, 2014 (04:26PM)
⇐ Return Journey: Train# 19049

19050/Patna-Mumbai Bandra T Express

Feb 22 2014 (9:31AM)
Change Departure Station:
Change Arrival Station:
Post a Train Travel TipPost a Train Travel Tip **new
Post a Comment/Question/Picture/VideoPost a Comment/Question/Picture/Video
Inaugural Run
Mon Jan 01, 2001
Pantry/Catering
✕ NO Pantry Car
✓ Catering Avbl
Better carry own food
Loco/Rake Reversals
UDN/Udhna Junction (3);
RSA - Rake Sharing
19065/19066 Bandra-Jodhpur Express
Rake/Coach Composition
ENG-SLRLD-GEN-AB1-B1-S1-S2-S3-S4-S5-S6-S7-S8-S9-S10-S11-S12-S13-S14-S15-GEN-SLR.; PNBE-UDN
Loco
VTA/KTE/ET WDM 3A/D
News    PNR    Forum    Time-Table    Availability    Fare Chart    Map    Arr/Dep History    Trips    Gallery    ΣChains    X/O    Timeline    
Travel Time: 6h 5m    -2 halts    Distance: 355 km    Avg Speed: 58 km/hr
Type: Mail/Express
Zone: WR/Western
Departs @ 23:10 (Avg 40m late)
Platform# ???
   W   
Patna Junction/PNBE 
Arrives @ 05:15 +1 night
Platform# ???
    T  
Chheoki Junction/COI 

-2 halts. 64 intermediate Stations between Patna Junction and Chheoki Junction

Hide intermediate Stations  Show Old Time-Table

#CodeStation NameX/OArrivesAvgDepartsAvgHaltPFDay#KmSpeedElevZoneAddress
1PNBEPatna Junction (10)  -23:10+40--10.05757mECRPatna 800001, Bihar
1.1SCYSachiwalay Halt (2)  23:12-23:12-  12.2 5757mECRPatna, Bihar
1.2PWSPhulwari Sharif (3)X  23:16-23:16-  16.0 5758mECRPatna, Bihar
1.3DNRDanapur (5)  23:20-23:20-  19.4 5758mECRKhagaul, Bihar
1.4NEONeora (2)  23:26-23:26-  115.4 5761mECRNational Highway 98, Bihar
1.5GNHIGandhi Halt  23:29-23:29-  118.4 5758mECRPatna, Bihar
1.6SDESadisopur (2)  23:34-23:34-  122.5 5764mECRSadisopur, Bihar
1.7PATLPatel Halt  23:36-23:36-  124.7 5761mECRPatna, Bihar
1.8BTABihta (2)X  23:38-23:38-  126.7 5762mECRBihta, Bihar
1.9VHCHChakki Block Cabin  23:45-23:45-  133.0 5763mECRNational Highway 30, Bihar
1.10KWRKoelwar (2)  23:47-23:47-  135.5 5765mECRNational Highway 30, Bihar
1.11KUAKulharia (2)  23:51-23:51-  139.0 5761mECRChandi Sahar Rd, Bihar
1.12JMIRJamira  23:56-23:56-  144.2 57 ECRPatna, Bihar
1.13ARAAra Junction (3)  00:01-00:01-  249.0 5763mECRarrah( 06182-233411), Bihar
1.14JGWLJagjivan  00:05-00:05-  252.1 5759mECRBuxar, Bihar
1.15KRSKarisath (2)  00:12-00:12-  258.9 5765mECRKarisath, Bihar
1.16KYAKauriya  00:16-00:16-  262.5 5761mECRBuxar, Bihar
1.17XSANSarvodaya Halt  00:18-00:18-  264.5 5763mECRBuxar, Bihar
1.18RNTERamanand Tewary  00:20-00:20-  266.5 5763mECRBuxar, Bihar
1.19BEABihiya  00:24-00:24-  270.4 5767mECRBehea, Bihar
1.20ASJPAmar Shahid Jagdev Prasad Halt  00:28-00:28-  274.2 5763mECRArrah Buxar Rd, Bihar
1.21BYNBanahi  00:30-00:30-  276.3 5767mECRBanahi, Bihar
1.22SKRISikaria  00:34-00:34-  280.2 5763mECRKuawan Tikathi Rd, Bihar
1.23RPRRaghunathpurX  00:39-00:39-  285.1 5769mECRRaghunathpur, Bihar
1.24VKDHVeer Kunwar Singh Dharauli Halt  00:44-00:44-  289.4 5765mECRArrah Buxar Rd, Bihar
1.25TWGTwining Ganj  00:48-00:48-  293.5 5770mECRArrah Buxar Rd, Bihar
1.26DUREDumraon (3)  00:56-00:56-  2101.1 5770mECRDumraon, Bihar
1.27BUEBaruna  01:04-01:04-  2108.2 5765mECRArrah Buxar Rd, Bihar
1.28BXRBuxar (3)  01:13-01:13-  2117.4 5767mECRBuxar, Bihar
1.29PWXPPawani Kumarpur Halt  01:23-01:23-  2126.3 5766mECRSukarwallia Rd, Bihar
1.30CSAChausa (2)X  01:25-01:25-  2128.4 5768mECRState Highway 14, Bihar
1.31BQWBarakalan  01:31-01:31-  2134.3 5768mECRState Highway 14, Bihar
1.32GMRGahmar (2)X  01:35-01:35-  2137.6 5768mECRDistt: Ghazipur, Uttar Pradesh
1.33KKRHKarahia  01:39-01:39-  2141.7 5772mECRPhooli Rd, Uttar Pradesh
1.34BWHBhadaura  01:43-01:43-  2145.8 5769mECRGhazipur, Uttar Pradesh
1.35USKUsia Khas  01:47-01:47-  2149.4 5769mECRDildarnagar, Uttar Pradesh
1.36DLNDildarnagar Junction (2)X  01:51-01:51-  2153.6 5772mECRDildarnagar, Uttar Pradesh
1.37DRVDarauli (2)X  01:59-01:59-  2160.7 5770mECRDarauli, Uttar Pradesh
1.38ZNAZamania  02:06-02:06-  2167.1 5777mECRGhazipur, Uttar Pradesh
1.39BHCLBahora Chandil  02:11-02:11-  2172.1 5772mECRDhanapur Avahi Rd, Uttar Pradesh
1.40DHADheena  02:19-02:19-  2179.5 5774mECRDheena, Uttar Pradesh
1.41TLAMTulsi Ashram  02:26-02:26-  2186.8 5777mECRState Highway 69, Uttar Pradesh
1.42SLDSakaldiha (2)X  02:33-02:33-  2193.1 5781mECRState Highway 69, Uttar Pradesh
1.43KCAKuchman (2)  02:41-02:41-  2200.8 5779mECRKuchman, Uttar Pradesh
1.44EOCMEOCM  02:43-02:43-  2202.7 5779mECRChandauli Mjhwr, Uttar Pradesh
1.45MGMYMughal Sarai Marshalling Yard  02:49-02:49-  2208.6 5781mECRMughalsarai, Uttar Pradesh
2MGSMughal Sarai Junction (8)X  02:52+4103:07+4215m22211.46783mECRMughalsarai 232101, Uttar Pradesh
2.1NEWCNew West CabinX  03:08-03:08-  2212.6 6780mECRMughal Sarai, Uttar Pradesh
2.2JEPJeonathpurX  03:14-03:14-  2219.2 6783mNCRNational Highway 7, Uttar Pradesh
2.3ARWAhraura RoadX  03:19-03:19-  2225.1 6785mNCRDist. Mirzapur, Uttar Pradesh
2.4KYTKailahatX  03:27-03:27-  2233.6 6784mNCRKailahat, Uttar Pradesh
2.5CARChunar Junction (5)  03:35-03:35-  2243.3 6785mNCRChunar Junction, Uttar Pradesh
2.6DAPDagmagpurX  03:42-03:42-  2250.7 6788mNCRDagmagpur, Uttar Pradesh
2.7PREPaharaX  03:49-03:49-  2258.7 6787mNCRNational Highway 7, Uttar Pradesh
2.8JHGJhingura  03:56-03:56-  2266.2 6785mNCRNational Highway 7, Uttar Pradesh
2.9MZPMirzapur (3)  04:03-04:03-  2274.5 6788mNCRMirzapur, Uttar Pradesh
2.10BDLVindhyachal (3)  04:10-04:10-  2281.9 6788mNCRMirzapur, Uttar Pradesh
2.11BEOBirohe  04:14-04:14-  2286.6 6783mNCRNational Highway 76, Uttar Pradesh
2.12GAEGaipura (4)  04:21-04:21-  2294.2 6786mNCRGaipura, Uttar Pradesh
2.13JIAJigna (1)  04:27-04:27-  2301.0 6794mNCRNational Highway 76, Uttar Pradesh
2.14MNFManda Road  04:34-04:34-  2309.4 6793mNCRNH 76, Uttar Pradesh
2.15UNDUnchdihX  04:42-04:42-  2317.5 6794mNCRUnchdih, Uttar Pradesh
2.16MJAMeja Road (4)  04:49-04:49-  2325.6 6794mNCRDistrict Allahabad, Uttar Pradesh
2.17BEPBheerpurX  04:59-04:59-  2336.9 6794mNCRNH 76, Uttar Pradesh
2.18KCNKarchanaX  05:07-05:07-  2346.0 6794mNCRKarchana, Uttar Pradesh
2.19COIChheoki Junction (3)p05:15-05:15-  2355.0 6496mNCRDist.-Allahabad, Uttar Pradesh
2.20IDGJIradatganj (3)  05:24-05:24-  2364.2 6499mNCRAllahabad, Uttar Pradesh
2.21JSRJasra (2)  05:29-05:29-  2370.2 6497mNCRJasra, Uttar Pradesh
2.22MFXMadarahaX  05:35-05:35-  2376.0 64103mNCRNational Highway 76, Uttar Pradesh
2.23LOGLohgara (2)X  05:41-05:41-  2382.3 64112mNCRLohgara, Uttar Pradesh
2.24SRJShankargarh (3)X  05:50-05:50-  2392.3 64132mNCRShankargarh, Uttar Pradesh
2.25MJHRMajhiari  05:59-05:59-  2401.9 64145mNCRNational Highway 76, Uttar Pradesh
2.26BRGBargarh  06:06-06:06-  2409.0 64166mNCRBargarh, Uttar Pradesh
2.27KTDDKataiya DandiX  06:11-06:11-  2414.5 64168mNCRKataiya, Uttar Pradesh
2.28DBRDabhaura (2)  06:21-06:21-  2424.7 64201mNCRDabhaura, Uttar Pradesh
2.29PNHIPanhaiX  06:30-06:30-  2435.1 64214mNCRManikpur, Uttar Pradesh
2.30MKPManikpur Junction (4)  06:42-06:42-  2447.2 64250mNCRManikpur, Uttar Pradesh
2.31BNSPBansapahar (1)X  06:45-06:45-  2450.8 64253mWCRBansapahar, Uttar Pradesh
2.32BQFBarah MuafiX  06:49-06:49-  2455.1 64253mWCRBarahmuafi, Uttar Pradesh
2.33MKDMarkundi  06:57-06:57-  2463.1 64270mWCRState Highway 11, Madhya Pradesh
2.34TKYRTikaria (2)X  07:04-07:04-  2471.0 64268mWCRMDR 11, Madhya Pradesh
2.35EDAItwan Dundaila  07:11-07:11-  2478.6 64320mWCRMajhgawa, Madhya Pradesh
2.36MJGMajhagawanX  07:17-07:17-  2484.2 64343mWCRMajhgawa, Madhya Pradesh
2.37CTHRChitahra  07:22-07:22-  2489.9 64367mWCRMDR 11, Madhya Pradesh
2.38KTHAKhutahaX  07:29-07:29-  2497.4 64332mWCRMDR 11, Madhya Pradesh
2.39JTWJaitwar (2)X  07:36-07:36-  2504.9 64321mWCRJaitwar, Madhya Pradesh
2.40HATIHati  07:41-07:41-  2509.8 64310mWCRBhad, Madhya Pradesh
2.41SAGMSagma (1)  07:49-07:49-  2518.7 64337mWCRSatna, Madhya Pradesh
3STASatna Junction (3)X  07:55+2:5408:05+2:5310m32525.084322mWCRSatna, Madhya Pradesh
3.1LGCELagargawan (2)X  08:13-08:13-  2536.5 84319mWCRLagargawan, Madhya Pradesh
3.2UHRUnchhera (2)  08:20-08:20-  2546.1 84331mWCRUnchhera, Madhya Pradesh
3.3MYRMaihar (3)  08:30-08:30-  2560.3 84353mWCRMaihar Railway Station, Madhya Pradesh
3.4BUUBhadanpur (2)  08:40-08:40-  2573.8 84362mWCRNational Highway 7, Madhya Pradesh
3.5UDRAmdara (2)  08:49-08:49-  2586.4 84376mWCRNational Highway 34, Madhya Pradesh
3.6PKRDPakara Road (2)  08:56-08:56-  2596.1 84381mWCRPakara, Madhya Pradesh
3.7JKEJukehi (3)  09:03-09:03-  2605.9 84402mWCRJukehi, Madhya Pradesh
3.8PTWAPatwara (2)  09:09-09:09-  2614.3 84398mWCRNational Highway 34 Distric Katni Madhya Pradesh, Madhya Pradesh
4KTEKatni Junction (6)X  09:15+2:5109:20+2:505m42623.360387mWCRKatni, Madhya Pradesh
4.1KTESKatni SouthX  09:21-09:21-  2624.3 60386mWCRKatni, Madhya Pradesh
4.2MDRRMadhavnagar Road (2)  09:25-09:25-  2628.4 60398mWCRMadhavnagar, Madhya Pradesh
4.3NWRNiwar (2)  09:33-09:33-  2636.5 60412mWCRPipraundh, Madhya Pradesh
4.4SNRRSansarpur (2)  09:41-09:41-  2644.2 60436mWCRNational Highway 7, Madhya Pradesh
4.5SBDSleemanabad Road (2)X  09:48-09:48-  2651.1 60434mWCRSleemanabad, Madhya Pradesh
4.6DDCEDundi (2)X  09:57-09:57-  2660.6 60415mWCRDundi, Madhya Pradesh
4.7SHRSihora Road (2)  10:12-10:12-  2675.5 60388mWCRJabalpur, Madhya Pradesh
4.8GSPRGosalpur (2)  10:23-10:23-  2686.7 60396mWCRJabalpur, Madhya Pradesh
4.9DOEDeori (2)X  10:33-10:33-  2697.2 60392mWCRJabalpur, Madhya Pradesh
4.10ADTLAdhartal (2)  10:42-10:42-  2706.0 60393mWCRJabalpur, Madhya Pradesh
5JBPJabalpur Junction (7)  10:50+3:1111:00+3:1110m12713.973416mWCRJabalpur, Madhya Pradesh
5.1HBGHowbagh Jabalpur (2)  11:02-11:02-  2716.2 73405mSECRJabalpur, Madhya Pradesh
5.2MMLMadan Mahal (3)  11:03-11:03-  2717.5 73428mWCRJabalpur, Madhya Pradesh
5.3KEQKachhpura (2)  11:04-11:04-  2719.2 73392mWCRJabalpur, Madhya Pradesh
5.4BRGTBheraghat (2)  11:14-11:14-  2730.6 73389mWCRBheraghat, Madhya Pradesh
5.5BHTNBhitoni (2)  11:24-11:24-  2743.7 73377mWCRJabalpur, Madhya Pradesh
5.6BMRBikrampur (2)  11:34-11:34-  2755.3 73353mWCRBikrampur Dist Narsingpur., Madhya Pradesh
5.7SRIDShridham (3)  11:44-11:44-  2767.2 73373mWCRShridham, Madhya Pradesh
5.8KKBKarak Bel (2)X  11:56-11:56-  2782.5 73375mWCRKarak Bel, Madhya Pradesh
5.9BELDBelkhera (2)  12:00-12:00-  2786.9 73367mWCRState Highway 22, Madhya Pradesh
5.10GPCGhatpindrai (2)  12:04-12:04-  2792.4 73366mWCRGhatpindra, Madhya Pradesh
6NUNarsinghpur (2)X  12:09+2:5412:11+2:552m22798.257365mWCRNarsimhapur, Madhya Pradesh
6.1KYKareli (2)  12:28-12:28-  2814.6 57361mWCRKareli, Madhya Pradesh
6.2KFYKarapgaon (2)X  12:37-12:37-  2822.8 57364mWCRNational Highway 26, Madhya Pradesh
6.3BNEBohani (2)  12:44-12:44-  2829.6 57361mWCRNarsinghpur, Madhya Pradesh
6.4GARGadarwara (2)  12:58-12:58-  2842.5 57352mWCRNarsinghpur, Madhya Pradesh
6.5SCKRSalichauka Road (2)  13:12-13:12-  2856.4 57355mWCRGadarwara, Madhya Pradesh
6.6JHTJunehta (2)X  13:23-13:23-  2866.6 57353mWCRState Highway 22, Madhya Pradesh
6.7BKHBankhedi (2)X  13:30-13:30-  2873.0 57351mWCRBankheri, Madhya Pradesh
6.8PPIPipariya (3)  13:49-13:49-  2891.9 57338mWCRPiparia, Madhya Pradesh
6.9SXFSobhapur (2)X  13:59-13:59-  2900.6 57338mWCRState Highway 22, Madhya Pradesh
6.10SGPSohagpur (2)  14:08-14:08-  2909.6 57340mWCRSohagpur, Madhya Pradesh
6.11GMDGuramkhedi (2)  14:19-14:19-  2919.6 57337mWCRSohagpur, Madhya Pradesh
6.12BGTABagra Tawa (2)  14:32-14:32-  2932.7 57338mWCRBagra Tawa, Madhya Pradesh
6.13SQLSontalai (2)  14:39-14:39-  2939.6 57329mWCRItarsi, Madhya Pradesh
6.14GROGurra (2)X  14:49-14:49-  2948.6 57327mWCRItarsi, Madhya Pradesh
7ETItarsi Junction (7)T15:00+2:5715:10+2:4710m--2959.174329mWCRItarsi 461111, Madhya Pradesh
7.1ITMAItarsi Marshalling Yard  15:11-15:11-  2960.0 74324mWCRItarsi, Madhya Pradesh
7.2JUHJujharpur Cabin  15:11-15:11-  2960.2 74323mWCRItarsi, Madhya Pradesh
7.3ETBItarsi B CabinO  15:15-15:15-  2965.3 74320mWCRJamani, Madhya Pradesh
7.4DRADularia (2)  15:20-15:20-  2971.4 74318mWCRItarsi, Madhya Pradesh
7.5KTZKhutwansa (2)  15:25-15:25-  2977.0 74325mWCRSH 15, Madhya Pradesh
7.6DKIDharamkundi (2)  15:31-15:31-  2984.4 74314mWCRSH 15, Madhya Pradesh
7.7BPFBanapura (2)  15:37-15:37-  2992.6 74314mWCRBanapura, Madhya Pradesh
7.8BIFBhaironpur (2)X  15:43-15:43-  2999.9 74322mWCRSH 15, Madhya Pradesh
7.9PGLPagdhal (2)  15:49-15:49-  21007.2 74317mWCRPagdhal, Madhya Pradesh
7.10CGOChhidgaon (2)  15:53-15:53-  21011.3 74309mWCRHarda, Madhya Pradesh
7.11TBNTimarni (2)  16:00-16:00-  21020.8 74308mWCRTimarni, Madhya Pradesh
7.12CRKCharkhera (2)  16:06-16:06-  21027.9 74298mWCRBarkalan, Madhya Pradesh
7.13HDHarda (3)  16:12-16:12-  21034.9 74289mWCRHarda, Madhya Pradesh
7.14PALPalasner (2)X  16:18-16:18-  21042.3 74296mWCRHarda, Madhya Pradesh
7.15MUOMasangaon (2)  16:23-16:23-  21048.3 74303mWCRSH 15, Madhya Pradesh
7.16BRIBhiringi (2)  16:27-16:27-  21053.4 74294mWCRSH 15, Madhya Pradesh
7.17KROKurawan (2)  16:32-16:32-  21060.1 74297mWCRSH 15, Madhya Pradesh
7.18KKNKhirkiya (2)  16:37-16:37-  21066.5 74281mWCRSH 15, Madhya Pradesh
7.19DRHIDagarhkeri (2)  16:46-16:46-  21077.4 74274mWCRState Highway 15, Madhya Pradesh
7.20BRUDBarud (2)X  16:54-16:54-  21087.0 74273mWCRKhandwa, Madhya Pradesh
7.21CAERChhanera (2)  17:02-17:02-  21097.2 74283mWCRChhanera, Madhya Pradesh
7.22CKKDCharkheda Khurd (2)X  17:08-17:08-  21103.9 74274mWCRKhandwa, Madhya Pradesh
7.23SGBJSurgaon Banjari (2)X  17:17-17:17-  21115.1 74298mWCRKhandwa, Madhya Pradesh
7.24TLVTalvadiya (2)X  17:27-17:27-  21126.8 74308mWCRKhandwa, Madhya Pradesh
7.25MTAMathela (2)  17:33-17:33-  21135.2 74322mWCRKhandwa, Madhya Pradesh
7.26KNWKhandwa Junction (5)X  17:39-17:39-  21142.6 74310mCRKhandwa, Madhya Pradesh
7.27BRGJBargaon Gujar (2)X  17:44-17:44-  21147.7 74316mCRKhandwa, Madhya Pradesh
7.28BMABagmar (2)  17:49-17:49-  21153.7 74335mCRState Highway 27, Madhya Pradesh
7.29KDKKohdad (2)  17:52-17:52-  21158.1 74344mCRState Highway 15, Madhya Pradesh
7.30DGNDongargaon (2)  17:58-17:58-  21165.7 74373mCRBorgaon, Madhya Pradesh
7.31SXASagphata (2)  18:05-18:05-  21173.4 74350mCRKhandwa, Madhya Pradesh
7.32MWAMandwa (2)  18:09-18:09-  21179.4 74317mCRState Highway 27, Madhya Pradesh
7.33NPNRNepanagar (2)  18:14-18:14-  21185.2 74289mCRState Highway 27, Madhya Pradesh
7.34CDIChandni (2)X  18:20-18:20-  21192.2 74276mCRNepanagar Rd, Madhya Pradesh
7.35AGQAsirgarh Road (2)X  18:28-18:28-  21202.5 74259mCRState Highway 27, Madhya Pradesh
7.36BAUBurhanpur (2)  18:36-18:36-  21211.4 74269mCRBurhanpur, Madhya Pradesh
7.37WGAWaghodaX  18:44-18:44-  21221.7 74259mCRChorwad, Maharashtra
7.38RVRaver (2)X  18:52-18:52-  21231.6 74242mCRJalgaon, Maharashtra
7.39NBNimbhora  19:00-19:00-  21241.8 74229mCRJalgaon, Maharashtra
7.40SAVSavda (2)  19:07-19:07-  21250.5 74220mCRSavda, Maharashtra
7.41DSKDuskheda (2)X  19:15-19:15-  21259.2 74213mCRDuskheda Station, Maharashtra
7.42BSBNBhusawal B Cabin  19:17-19:17-  21262.5 74214mCRBhusawal, Maharashtra
8BSLBhusaval Junction (8)X  19:20+3:4619:30+3:4910m621265.940208mCRBhusaval 425201, Maharashtra
8.1BDIBhadli (2)XO  19:49-19:49-  21278.5 40211mCRBhadli, Maharashtra
8.2TRWTarsod  19:59-19:59-  21285.3 40206mCRAsoda - Tarsod Road, Maharashtra
8.3JLJalgaon Junction (4)  20:06-20:06-  21290.1 40213mCRJalgaon 425001, Maharashtra
8.4PLDPaldhi (2)  20:23-20:23-  21301.1 40208mWRPaldhi, Maharashtra
8.5CHLKChavalkhede  20:40-20:40-  21312.6 40196mWRState Highway 185, Maharashtra
8.6DXGDharangaon  20:50-20:50-  21319.8 40217mWRDharangaon, Maharashtra
8.7BHNEBhone (2)  21:02-21:02-  21327.4 40196mWRState Highway 185, Maharashtra
8.8TKHETakarkhede (1)  21:10-21:10-  21333.2 40203mWRState Highway 6, Maharashtra
8.9ANAmalner (1)  21:28-21:28-  21344.7 40188mWRAmalner, Maharashtra
8.10BRTKBhortex  21:40-21:40-  21352.7 40180mWRVadhoda, Maharashtra
8.11PDPPadse  21:51-21:51-  21360.6 40181mWRDhule, Maharashtra
8.12BEWBetavad (1)  22:00-22:00-  21366.2 40178mWRState Highway 6, Maharashtra
8.13NDNNardana (1)  22:10-22:10-  21373.0 40184mWRNardana, Maharashtra
8.14HOLHol (1)  22:17-22:17-  21377.9 40185mWRState Highway 6, Maharashtra
8.15SNKSindkheda (1)  22:30-22:30-  21386.2 40178mWRState Highway 11, Maharashtra
8.16SNSLSonshelu (1)X  22:39-22:39-  21392.7 40185mWRMSH1, Maharashtra
8.17VKHVikhran (1)  22:46-22:46-  21397.5 40176mWRMSH1, Maharashtra
8.18DDEDondaicha (2)  22:59-22:59-  21405.6 40163mWRDondaicha, Maharashtra
8.19RNLRanala (1)X  23:17-23:17-  21417.6 40164mWRState Highway 6, Maharashtra
8.20TISITisi (1)  23:31-23:31-  21427.1 40185mWRState Highway 7, Maharashtra
8.21CUEChoupale (1)  23:42-23:42-  21434.9 40208mWRNehru Nagar, Maharashtra
9NDBNandurbar (3)  23:50+1:5823:58+1:598m221440.040203mWRNandurbar, Maharashtra
9.1DWDDhekwad (1)  00:12-00:12-  31449.1 40209mWRState Highway 5, Maharashtra
9.2BAWDBhadwad (1)X  00:22-00:22-  31455.9 40212mWRBhadwad, Maharashtra
9.3KBHKhandbara (1)  00:32-00:32-  31462.6 40198mWRKhandbara, Maharashtra
9.4KHTGKhatgaon (1)  00:45-00:45-  31471.4 40178mWRState Highway 5, Maharashtra
9.5CPDChinchpada (1)  01:00-01:00-  31481.2 40178mWRGangapur, Maharashtra
9.6KFFKolda (1)  01:10-01:10-  31487.6 40160mWRGangapur, Maharashtra
9.7NWUNavapur (2)X  01:25-01:25-  31497.9 40124mWRNavapur, Gujarat
9.8BBAIBhadbhunja (1)O  01:42-01:42-  31509.0 40126mWRGujarat 394375 ?, Gujarat
9.9LKKDLakkad Kot (1)  01:49-01:49-  31513.9 40122mWRGujarat 394375 ?, Gujarat
9.10USDUkai Songadh (2)  02:00-02:00-  31521.2 40139mWRSongadh, Gujarat
9.11DSDDosvada (1)  02:07-02:07-  31525.8 40121mWRNational Highway 6, Gujarat
9.12KKRDKikakui Road (1)  02:11-02:11-  31528.3 40114mWRGujarat 394650 ?, Gujarat
9.13VYAVyara (2)  02:28-02:28-  31539.9 4090mWRVyara, Gujarat
9.14LTVLotarva (1)  02:38-02:38-  31546.3 4057mWRSankr Main Rd, Gujarat
9.15KRAIKaher (1)  02:43-02:43-  31549.4 4055mWRKaher, Gujarat
9.16MIDMadhi (1)  02:51-02:51-  31554.8 4045mWRMadhi, Gujarat
9.17MGRLMangrolla (1)  02:59-02:59-  31560.1 4036mWRPipariya, Gujarat
9.18TBVTimbarva (1)  03:03-03:03-  31562.8 4035mWRTimberva, Gujarat
9.19BIYBardoli (2)  03:13-03:13-  31569.6 4035mWRNear Bardoli Sugar Factory Bardoli, Gujarat
9.20GGARGangadhara (1)  03:22-03:22-  31575.8 4027mWRKareli, Gujarat
9.21BGMRBagumra (1)  03:30-03:30-  31580.9 4022mWRNational Highway 6, Gujarat
9.22CHMChalthan (1)  03:37-03:37-  31585.3 4023mWRKadodra, Gujarat
9.23NOLNiyol (1)  03:44-03:44-  31590.3 4018mWRSurat, Gujarat
10UDNUdhna Junction (3)X03:54+1:0303:55+1:301m331596.85116mWRUdhna 394210, Gujarat
10.1BHETBhestan (2)X  04:01-04:01-  31601.6 5113mWRSurat, Gujarat
10.2SCHSachin (3)X  04:07-04:07-  31607.3 5111mWRKansad Road Sachin, Gujarat
10.3MRLMaroli (3)X  04:15-04:15-  31614.0 5115mWRMaroli, Gujarat
10.4NVSNavsari (3)  04:25-04:25-  31622.4 5114mWRNavsari, Gujarat
10.5GNSTGandhi Smriti (2)  04:29-04:29-  31625.4 5116mWRGandhi Smriti Navsari, Gujarat
10.6HXRHansapore (2)  04:30-04:30-  31627.0 5115mWRHansapore, Gujarat
10.7VDHVedchha (3)X  04:35-04:35-  31630.9 5113mWRNavsari, Gujarat
10.8ACLAncheli (2)  04:39-04:39-  31634.2 5120mWRNavsari, Gujarat
10.9AMLAmalsad (3)X  04:43-04:43-  31638.1 5112mWRAmalsad, Gujarat
10.10BIMBilimora Junction (4)  04:50-04:50-  31643.6 5111mWRBilimora, Gujarat
10.11JRSJoravasan (2)  04:55-04:55-  31647.6 5115mWRJoravasan, Gujarat
10.12DGIDungri (3)  05:01-05:01-  31652.6 5120mWRNH 8, Gujarat
11BLValsad (3)  05:11+1:1905:12+1:221m331661.55815mWRValsad, Gujarat
11.1ATULAtul (3)  05:19-05:19-  31668.2 5822mWRValsad, Gujarat
11.2PADPardi (3)  05:23-05:23-  31672.2 5819mWRValsad, Gujarat
11.3UVDUdvada (3)  05:29-05:29-  31678.2 5818mWRUdvada, Gujarat
11.4BAGDBagwada (2)  05:32-05:32-  31681.1 5822mWRNH8, Gujarat
12VAPIVapi (3)  05:39+1:4205:40+1:441m231687.84927mWRVapi, Gujarat
12.1KEBKarambeli (2)  05:48-05:48-  31694.2 4929mWRNational Highway 8, Gujarat
12.2BLDBhilad (3)XO  05:54-05:54-  31699.1 4933mWRBhilad, Gujarat
12.3SJNSanjan (3)  06:08-06:08-  31710.6 4922mWRSanjan, Gujarat
12.4UBRUmbargam Road (3)X  06:14-06:14-  31716.0 4930mWRUmbergaon, Gujarat
12.5BRRDBordi Road (2)  06:20-06:20-  31720.3 4917mWRBordi, Maharashtra
12.6GVDGholvad (4)  06:26-06:26-  31725.2 4914mWRGholvad, Maharashtra
12.7DRDDahanu Road (5)  06:39-06:39-  31736.3 4912mWRDahanu, Maharashtra
12.8VGNVangaon (3)X  06:54-06:54-  31748.6 4911mWRThane, Maharashtra
12.9BORBoisar (3)XO  07:06-07:06-  31758.0 4917mWRBoisar Tel.no-02525-266626, Maharashtra
12.10UOIUmroli (2)X  07:12-07:12-  31762.9 498mWRBoisar, Maharashtra
12.11PLGPalghar (3)  07:19-07:19-  31769.3 4919mWRPalghar, Maharashtra
12.12KLVKelve Road (3)X  07:30-07:30-  31777.7 4910mWRThane, Maharashtra
12.13SAHSaphale (2)  07:38-07:38-  31784.1 498mWRThane, Maharashtra
12.14VTNVaitarna (2)  07:47-07:47-  31791.9 493mWRThane, Maharashtra
12.15VRVirar (8)X  07:57-07:57-  31800.4 496mWRThane, Maharashtra
12.16NSPNallasopara (4)  08:03-08:03-  31804.6 495mWRNallasopara station Rd, Maharashtra
12.17BSRVasai Road (7)  08:08-08:08-  31808.9 497mWRThane-401202, Maharashtra
12.18NIGNaigaon (4)  08:12-08:12-  31812.6 495mWRNaigaon West, Maharashtra
12.19BYRBhayandar (6)X  08:18-08:18-  31817.3 496mWRThane, Maharashtra
12.20MIRAMira Road (4)  08:22-08:22-  31820.5 493mWRMira Bhayandar, Maharashtra
12.21DICDahisar (4)X  08:26-08:26-  31823.9 4914mWRMumbai, Maharashtra
13BVIMumbai Borivali (8)  08:29+3508:30+371m631826.32219mWRMumbai - 400092, Maharashtra
13.1KILEKandivli (4)  08:37-08:37-  31829.0 2214mWRMumbai, Maharashtra
13.2MDDMalad (4)  08:43-08:43-  31831.1 2218mWRMumbai-400064, Maharashtra
13.3GMNGoregaon (5)X  08:49-08:49-  31833.5 2215mWRMumbai - 400104, Maharashtra
13.4JOSJogeshwari (4)  08:58-08:58-  31836.7 2214mWRMumbai, Maharashtra
13.5ADHMumbai Andheri (9)  09:04-09:04-  31838.8 2212mWRMumbai, Maharashtra
13.6VLPVille Parle (6)  09:09-09:09-  31840.8 2211mWRMumbai, Maharashtra
13.7STCSanta Cruz (6)  09:14-09:14-  31842.7 2210mWRMumbai, Maharashtra
13.8KHARKhar (6)  09:18-09:18-  31844.2 227mWRMumbai, Maharashtra
14BDTSMumbai Bandra Terminus (5)  09:20+59-331845.0-4mWRMumbai 400050, Maharashtra
Scroll to Top
Scroll to Bottom